Time;durP1;ratioP1;P1;durP2;ratioP2;P2;SDS_P1;SDS_P2;PMS_P1;PMS_P2;Temp;Humidity;BMP_temperature;BMP_pressure;BME280_temperature;BME280_humidity;BME280_pressure;Samples;Min_cycle;Max_cycle;Signal;HPM_P1;HPM_P2
2021/06/12 00:01:18;;;;;;;4.68;2.85;;;19.90;83.50;;;;;;5051595;28;20052;-73
2021/06/12 00:03:43;;;;;;;4.72;3.75;;;19.80;83.50;;;;;;5054359;28;20029;-73
2021/06/12 00:06:09;;;;;;;6.68;3.80;;;19.70;83.80;;;;;;5045943;28;20033;-72
2021/06/12 00:08:35;;;;;;;6.45;3.50;;;19.70;83.70;;;;;;5047307;28;20029;-72
2021/06/12 00:11:01;;;;;;;4.63;3.05;;;19.70;83.80;;;;;;5050452;28;20025;-72
2021/06/12 00:13:27;;;;;;;6.78;3.58;;;19.70;83.40;;;;;;5047876;28;20025;-73
2021/06/12 00:15:54;;;;;;;4.47;2.92;;;19.70;83.80;;;;;;5059700;28;20059;-73
2021/06/12 00:18:23;;;;;;;3.90;3.00;;;19.70;83.50;;;;;;5049659;28;20064;-72
2021/06/12 00:20:51;;;;;;;4.88;3.58;;;19.70;84.30;;;;;;5054645;28;20013;-73
2021/06/12 00:23:17;;;;;;;5.78;3.22;;;19.60;84.00;;;;;;5054585;28;20430;-72
2021/06/12 00:25:43;;;;;;;5.47;3.70;;;19.60;84.10;;;;;;5043539;28;20033;-73
2021/06/12 00:28:09;;;;;;;5.95;3.58;;;19.60;84.00;;;;;;5056336;28;20470;-72
2021/06/12 00:30:35;;;;;;;5.22;3.70;;;19.60;84.10;;;;;;5061668;28;20058;-73
2021/06/12 00:33:01;;;;;;;4.55;3.30;;;19.60;84.40;;;;;;5050503;28;20032;-72
2021/06/12 00:35:27;;;;;;;6.82;3.53;;;19.60;84.30;;;;;;5037306;28;20033;-73
2021/06/12 00:37:53;;;;;;;6.25;3.45;;;19.60;84.10;;;;;;5052868;28;20555;-74
2021/06/12 00:40:20;;;;;;;6.10;3.47;;;19.60;84.40;;;;;;5057801;28;20036;-73
2021/06/12 00:42:47;;;;;;;4.15;3.28;;;19.60;84.40;;;;;;5055366;28;20032;-72
2021/06/12 00:45:18;;;;;;;4.88;3.10;;;19.60;84.40;;;;;;5065499;28;20115;-73
2021/06/12 00:47:47;;;;;;;;;;;19.50;84.40;;;;;;5042866;28;20025;-73
2021/06/12 00:50:13;;;;;;;4.75;3.47;;;19.50;84.30;;;;;;5057296;28;20388;-74
2021/06/12 00:52:43;;;;;;;5.45;4.18;;;19.60;84.40;;;;;;5051549;28;20033;-73
2021/06/12 00:55:12;;;;;;;6.60;4.47;;;19.60;84.70;;;;;;5057639;28;20029;-73
2021/06/12 00:57:38;;;;;;;6.65;4.13;;;19.50;84.80;;;;;;5049966;28;20036;-73
2021/06/12 01:00:05;;;;;;;6.28;4.57;;;19.60;84.90;;;;;;5046159;28;20500;-73
2021/06/12 01:02:32;;;;;;;4.65;3.83;;;19.60;85.10;;;;;;5057479;28;20033;-72
2021/06/12 01:04:58;;;;;;;5.53;3.30;;;19.50;84.90;;;;;;5050370;28;20036;-73
2021/06/12 01:07:24;;;;;;;5.22;3.35;;;19.60;84.70;;;;;;5047551;28;20025;-73
2021/06/12 01:09:49;;;;;;;4.65;3.67;;;19.60;84.70;;;;;;5050245;28;20130;-73
2021/06/12 01:12:20;;;;;;;5.65;3.88;;;19.60;84.60;;;;;;5062286;28;20091;-72
2021/06/12 01:14:52;;;;;;;6.15;4.03;;;19.60;84.80;;;;;;5052079;28;20025;-72
2021/06/12 01:17:33;;;;;;;5.20;3.85;;;19.60;85.00;;;;;;5044819;28;20029;-73
2021/06/12 01:20:05;;;;;;;4.88;3.83;;;19.60;84.80;;;;;;5040282;28;20026;-73
2021/06/12 01:22:45;;;;;;;5.90;4.22;;;19.60;84.90;;;;;;5056406;28;20025;-72
2021/06/12 01:25:29;;;;;;;5.63;4.47;;;19.60;85.00;;;;;;5045805;28;20052;-72
2021/06/12 01:28:18;;;;;;;5.93;4.10;;;19.60;84.90;;;;;;5042300;28;20021;-72
2021/06/12 01:30:48;;;;;;;5.50;4.00;;;19.60;84.90;;;;;;5047141;28;20082;-73
2021/06/12 01:33:14;;;;;;;6.07;4.32;;;19.50;84.90;;;;;;5065333;28;20081;-72
2021/06/12 01:35:47;;;;;;;6.50;4.75;;;19.60;84.90;;;;;;5055251;28;20107;-72
2021/06/12 01:38:25;;;;;;;6.30;4.00;;;19.60;85.00;;;;;;5059869;28;20021;-72
2021/06/12 01:40:52;;;;;;;5.97;3.42;;;19.60;85.00;;;;;;5056405;28;20102;-73
2021/06/12 01:43:19;;;;;;;7.45;4.50;;;19.60;84.70;;;;;;5040896;28;20504;-73
2021/06/12 01:45:47;;;;;;;6.32;4.00;;;19.60;85.20;;;;;;5040585;28;20022;-73
2021/06/12 01:48:15;;;;;;;4.38;3.65;;;19.60;85.00;;;;;;5059380;28;20474;-73
2021/06/12 01:50:42;;;;;;;7.72;4.82;;;19.60;84.90;;;;;;5055533;28;20041;-73
2021/06/12 01:53:10;;;;;;;8.18;5.28;;;19.60;85.20;;;;;;5046529;28;20029;-72
2021/06/12 01:55:39;;;;;;;8.00;5.20;;;19.60;85.40;;;;;;5055524;28;20020;-73
2021/06/12 01:58:09;;;;;;;6.05;4.03;;;19.50;85.50;;;;;;5059463;28;20043;-73
2021/06/12 02:00:37;;;;;;;6.40;4.47;;;19.50;85.10;;;;;;5057890;28;20497;-73
2021/06/12 02:03:03;;;;;;;8.77;5.05;;;19.50;85.50;;;;;;5042218;28;20042;-73
2021/06/12 02:05:29;;;;;;;7.00;4.97;;;19.50;85.60;;;;;;5068438;28;20100;-73
2021/06/12 02:07:58;;;;;;;7.95;5.05;;;19.50;85.80;;;;;;5050742;28;20566;-73
2021/06/12 02:10:25;;;;;;;6.68;5.22;;;19.50;85.70;;;;;;5048277;28;20033;-72
2021/06/12 02:12:52;;;;;;;9.55;6.07;;;19.40;85.90;;;;;;5054327;28;20037;-74
2021/06/12 02:15:21;;;;;;;8.43;5.28;;;19.40;86.10;;;;;;5043056;28;20597;-73
2021/06/12 02:17:49;;;;;;;9.10;5.47;;;19.40;86.00;;;;;;5038724;28;20116;-75
2021/06/12 02:20:16;;;;;;;7.82;4.60;;;19.40;86.10;;;;;;5051220;28;20025;-72
2021/06/12 02:22:48;;;;;;;7.95;5.13;;;19.40;86.00;;;;;;5058934;28;20036;-73
2021/06/12 02:25:15;;;;;;;7.65;5.32;;;19.40;86.40;;;;;;5049878;28;20056;-73
2021/06/12 02:27:53;;;;;;;9.00;6.28;;;19.40;86.60;;;;;;5047252;28;20029;-72
2021/06/12 02:30:21;;;;;;;7.90;6.00;;;19.30;86.80;;;;;;5044510;28;20445;-72
2021/06/12 02:32:50;;;;;;;8.68;6.50;;;19.40;86.90;;;;;;5044950;28;20479;-73
2021/06/12 02:35:15;;;;;;;8.07;5.68;;;19.40;87.10;;;;;;5056027;28;20029;-72
2021/06/12 02:37:45;;;;;;;7.85;5.95;;;19.30;87.00;;;;;;5053234;28;20093;-72
2021/06/12 02:40:11;;;;;;;9.50;6.43;;;19.30;87.30;;;;;;5054848;28;20071;-73
2021/06/12 02:42:37;;;;;;;11.23;7.30;;;19.40;87.40;;;;;;5048241;28;20493;-72
2021/06/12 02:45:08;;;;;;;9.02;6.88;;;19.40;87.70;;;;;;5046563;28;20934;-73
2021/06/12 02:47:55;;;;;;;11.02;7.25;;;19.30;87.80;;;;;;5043136;28;20032;-72
2021/06/12 02:50:25;;;;;;;12.00;8.07;;;19.30;88.20;;;;;;5048135;28;20395;-72
2021/06/12 02:52:53;;;;;;;11.98;7.82;;;19.30;88.30;;;;;;5054123;28;20402;-73
2021/06/12 02:55:19;;;;;;;14.15;10.30;;;19.30;88.40;;;;;;5047188;28;20025;-74
2021/06/12 02:57:48;;;;;;;14.52;9.77;;;19.30;88.70;;;;;;5044315;28;20091;-72
2021/06/12 03:00:20;;;;;;;15.63;9.65;;;19.30;88.70;;;;;;5043176;28;20041;-73
2021/06/12 03:02:46;;;;;;;15.07;10.48;;;19.30;89.10;;;;;;5048551;28;20086;-72
2021/06/12 03:05:15;;;;;;;14.73;10.32;;;19.30;89.30;;;;;;5057248;28;20045;-72
2021/06/12 03:07:48;;;;;;;14.35;10.85;;;19.20;89.30;;;;;;5048333;28;20048;-73
2021/06/12 03:10:15;;;;;;;16.73;10.60;;;19.20;89.50;;;;;;5044021;28;20136;-73
2021/06/12 03:12:41;;;;;;;19.95;12.30;;;19.20;89.60;;;;;;5042538;28;20387;-73
2021/06/12 03:15:09;;;;;;;15.48;10.77;;;19.20;89.90;;;;;;5045635;28;20100;-73
2021/06/12 03:17:35;;;;;;;18.02;11.65;;;19.20;89.80;;;;;;5032701;28;20380;-73
2021/06/12 03:20:02;;;;;;;17.13;11.88;;;19.20;89.70;;;;;;5033073;28;20022;-73
2021/06/12 03:22:29;;;;;;;18.85;12.13;;;19.20;89.80;;;;;;5053931;28;20498;-73
2021/06/12 03:24:55;;;;;;;17.20;11.75;;;19.20;89.80;;;;;;5046359;28;20043;-72
2021/06/12 03:27:21;;;;;;;17.45;11.10;;;19.20;89.90;;;;;;5045782;28;20502;-73
2021/06/12 03:29:47;;;;;;;13.45;10.07;;;19.20;89.80;;;;;;5053627;28;20036;-73
2021/06/12 03:32:13;;;;;;;14.98;10.48;;;19.20;89.40;;;;;;5045706;28;20043;-73
2021/06/12 03:34:40;;;;;;;13.65;10.93;;;19.30;89.60;;;;;;5053813;28;20025;-73
2021/06/12 03:37:07;;;;;;;14.18;10.48;;;19.20;89.40;;;;;;5048427;28;20029;-73
2021/06/12 03:39:33;;;;;;;12.10;9.43;;;19.20;89.50;;;;;;5061097;28;20036;-72
2021/06/12 03:42:00;;;;;;;14.13;10.10;;;19.20;89.40;;;;;;5050652;28;20113;-73
2021/06/12 03:44:26;;;;;;;13.48;9.23;;;19.20;89.60;;;;;;5046240;28;20082;-73
2021/06/12 03:46:53;;;;;;;13.55;8.93;;;19.20;89.60;;;;;;5048493;28;20395;-73
2021/06/12 03:49:20;;;;;;;14.43;10.35;;;19.20;89.70;;;;;;5045763;28;20021;-73
2021/06/12 03:51:47;;;;;;;13.35;9.63;;;19.20;89.90;;;;;;5056753;28;20029;-72
2021/06/12 03:54:15;;;;;;;16.20;11.20;;;19.20;89.80;;;;;;5046321;28;20502;-73
2021/06/12 03:56:42;;;;;;;12.95;10.05;;;19.20;90.00;;;;;;5056839;28;20040;-73
2021/06/12 03:59:08;;;;;;;11.98;8.65;;;19.20;90.10;;;;;;5051389;28;20044;-73
2021/06/12 04:01:35;;;;;;;16.52;10.13;;;19.20;90.00;;;;;;5046564;28;20025;-73
2021/06/12 04:04:01;;;;;;;11.50;8.88;;;19.20;90.00;;;;;;5059719;28;20116;-75
2021/06/12 04:06:27;;;;;;;12.80;9.43;;;19.20;90.00;;;;;;5037638;28;20033;-73
2021/06/12 04:08:53;;;;;;;10.60;7.28;;;19.20;90.10;;;;;;5050525;28;20032;-74
2021/06/12 04:11:18;;;;;;;7.95;6.68;;;19.20;89.70;;;;;;5057065;28;20033;-72
2021/06/12 04:13:44;;;;;;;10.15;6.88;;;19.20;89.50;;;;;;5042487;28;20025;-73
2021/06/12 04:16:11;;;;;;;10.27;7.53;;;19.30;89.30;;;;;;5044498;28;20108;-73
2021/06/12 04:18:37;;;;;;;11.57;7.90;;;19.40;88.90;;;;;;5055381;28;20040;-73
2021/06/12 04:21:04;;;;;;;9.57;7.55;;;19.40;88.70;;;;;;5058558;28;20494;-74
2021/06/12 04:23:30;;;;;;;10.82;7.22;;;19.40;88.70;;;;;;5059726;28;20033;-73
2021/06/12 04:25:56;;;;;;;11.95;7.32;;;19.30;88.70;;;;;;5054757;28;20116;-73
2021/06/12 04:28:22;;;;;;;11.85;7.70;;;19.30;88.60;;;;;;5058190;28;20107;-73
2021/06/12 04:30:50;;;;;;;11.00;7.18;;;19.30;88.70;;;;;;5055857;28;20025;-73
2021/06/12 04:33:16;;;;;;;10.98;7.63;;;19.30;88.80;;;;;;5048364;28;20041;-73
2021/06/12 04:35:42;;;;;;;10.70;7.75;;;19.30;88.70;;;;;;5055388;28;20018;-73
2021/06/12 04:38:07;;;;;;;10.57;7.57;;;19.20;88.60;;;;;;5057046;28;20482;-73
2021/06/12 04:40:36;;;;;;;8.80;6.88;;;19.20;88.70;;;;;;5067980;28;20537;-72
2021/06/12 04:43:03;;;;;;;10.68;7.05;;;19.20;88.70;;;;;;5048473;28;20029;-74
2021/06/12 04:45:29;;;;;;;8.25;6.25;;;19.20;88.70;;;;;;5047870;28;20051;-74
2021/06/12 04:47:55;;;;;;;9.55;7.00;;;19.20;88.60;;;;;;5050421;28;20479;-73
2021/06/12 04:50:21;;;;;;;12.48;7.90;;;19.20;88.80;;;;;;5056718;28;20047;-73
2021/06/12 04:52:47;;;;;;;11.68;7.88;;;19.20;88.90;;;;;;5040565;28;20040;-73
2021/06/12 04:55:14;;;;;;;16.52;9.70;;;19.20;88.90;;;;;;5045580;28;20029;-72
2021/06/12 04:57:40;;;;;;;16.60;10.15;;;19.20;89.10;;;;;;5033513;28;20017;-72
2021/06/12 05:00:11;;;;;;;16.05;11.13;;;19.20;89.40;;;;;;5061276;28;20024;-73
2021/06/12 05:02:39;;;;;;;16.60;11.13;;;19.10;89.50;;;;;;5053095;28;20123;-73
2021/06/12 05:05:07;;;;;;;16.85;10.70;;;19.10;89.70;;;;;;5073003;28;20112;-73
2021/06/12 05:07:32;;;;;;;18.65;11.45;;;19.20;89.70;;;;;;5059503;28;20098;-73
2021/06/12 05:09:58;;;;;;;17.33;11.90;;;19.10;89.80;;;;;;5062601;28;20037;-73
2021/06/12 05:12:24;;;;;;;17.63;11.27;;;19.10;90.00;;;;;;5075591;28;20028;-72
2021/06/12 05:14:53;;;;;;;17.67;12.48;;;19.10;90.00;;;;;;5068830;28;20029;-73
2021/06/12 05:17:19;;;;;;;22.63;13.65;;;19.00;90.20;;;;;;5075949;28;20029;-73
2021/06/12 05:19:45;;;;;;;19.50;13.13;;;19.00;90.30;;;;;;5077991;28;20020;-73
2021/06/12 05:22:11;;;;;;;18.52;12.30;;;19.00;90.30;;;;;;5075319;28;20021;-73
2021/06/12 05:24:37;;;;;;;19.23;12.23;;;19.00;90.30;;;;;;5076481;28;20036;-73
2021/06/12 05:27:04;;;;;;;20.45;13.45;;;19.10;90.30;;;;;;5082354;28;20036;-74
2021/06/12 05:29:30;;;;;;;17.98;12.55;;;19.10;90.30;;;;;;5057270;28;20033;-72
2021/06/12 05:31:56;;;;;;;21.55;12.60;;;19.10;90.20;;;;;;5071049;28;20085;-73
2021/06/12 05:34:21;;;;;;;23.80;13.77;;;19.10;90.30;;;;;;5079615;28;20027;-72
2021/06/12 05:36:47;;;;;;;19.90;12.57;;;19.20;90.30;;;;;;5077943;28;20487;-74
2021/06/12 05:39:13;;;;;;;18.70;12.70;;;19.20;90.30;;;;;;5080681;28;20029;-72
2021/06/12 05:41:39;;;;;;;17.42;12.20;;;19.20;90.30;;;;;;5068082;28;20089;-72
2021/06/12 05:44:06;;;;;;;19.73;12.65;;;19.30;90.30;;;;;;5075126;28;20020;-72
2021/06/12 05:46:34;;;;;;;16.25;11.75;;;19.30;90.20;;;;;;5089503;28;20050;-75
2021/06/12 05:49:00;;;;;;;16.45;12.40;;;19.30;90.10;;;;;;5092272;28;20143;-72
2021/06/12 05:51:27;;;;;;;18.58;12.75;;;19.30;90.10;;;;;;5063805;28;20079;-73
2021/06/12 05:53:53;;;;;;;16.88;11.77;;;19.30;90.10;;;;;;5075104;28;20051;-73
2021/06/12 05:56:19;;;;;;;18.38;12.68;;;19.40;90.10;;;;;;5062355;28;20095;-72
2021/06/12 05:58:45;;;;;;;19.42;13.63;;;19.40;90.00;;;;;;5054652;28;20630;-73
2021/06/12 06:01:12;;;;;;;15.90;12.13;;;19.40;90.00;;;;;;5074946;28;20027;-72
2021/06/12 06:03:38;;;;;;;15.95;10.80;;;19.40;90.00;;;;;;5080225;28;20024;-73
2021/06/12 06:06:06;;;;;;;19.38;13.25;;;19.40;89.80;;;;;;5070386;28;20035;-73
2021/06/12 06:08:32;;;;;;;19.50;14.27;;;19.50;89.80;;;;;;5078434;28;20389;-73
2021/06/12 06:10:57;;;;;;;22.52;14.50;;;19.40;89.60;;;;;;5079224;28;20028;-73
2021/06/12 06:13:23;;;;;;;17.05;12.82;;;19.50;89.60;;;;;;5077866;28;20024;-73
2021/06/12 06:15:49;;;;;;;21.95;14.77;;;19.50;89.60;;;;;;5066727;28;20424;-73
2021/06/12 06:18:15;;;;;;;21.08;15.43;;;19.40;89.60;;;;;;5084019;28;20078;-73
2021/06/12 06:20:44;;;;;;;17.85;13.07;;;19.50;89.90;;;;;;5066486;28;20020;-73
2021/06/12 06:23:11;;;;;;;17.77;13.52;;;19.40;89.70;;;;;;5085677;28;20545;-72
2021/06/12 06:25:37;;;;;;;19.85;13.70;;;19.50;89.70;;;;;;5074000;28;20541;-73
2021/06/12 06:28:03;;;;;;;19.75;13.63;;;19.50;89.80;;;;;;5066067;28;20397;-74
2021/06/12 06:30:29;;;;;;;20.13;13.60;;;19.50;90.00;;;;;;5060704;28;20131;-73
2021/06/12 06:32:55;;;;;;;18.95;13.35;;;19.50;89.90;;;;;;5081048;28;20511;-73
2021/06/12 06:35:20;;;;;;;17.10;12.57;;;19.50;90.00;;;;;;5078644;28;20036;-72
2021/06/12 06:37:46;;;;;;;20.88;14.18;;;19.60;90.00;;;;;;5073033;28;20031;-72
2021/06/12 06:40:12;;;;;;;23.67;14.73;;;19.60;90.00;;;;;;5071809;28;20483;-73
2021/06/12 06:42:40;;;;;;;24.88;16.70;;;19.60;90.00;;;;;;5074208;28;20086;-73
2021/06/12 06:45:07;;;;;;;20.73;14.25;;;19.60;90.00;;;;;;5071372;28;20028;-73
2021/06/12 06:47:36;;;;;;;20.27;14.98;;;19.60;89.80;;;;;;5078574;28;20025;-72
2021/06/12 06:50:03;;;;;;;18.75;13.07;;;19.60;89.30;;;;;;5059543;28;20321;-72
2021/06/12 06:52:29;;;;;;;21.85;16.70;;;19.60;89.30;;;;;;5077073;28;20036;-73
2021/06/12 06:54:55;;;;;;;20.92;14.73;;;19.60;89.40;;;;;;5079194;28;20020;-73
2021/06/12 06:57:21;;;;;;;19.27;13.02;;;19.60;89.30;;;;;;5077865;28;20028;-73
2021/06/12 06:59:46;;;;;;;19.98;13.93;;;19.60;89.30;;;;;;5079261;28;20054;-73
2021/06/12 07:02:12;;;;;;;23.67;17.35;;;19.60;89.30;;;;;;5075357;28;20024;-73
2021/06/12 07:04:38;;;;;;;22.95;16.17;;;19.60;89.30;;;;;;5077955;28;20505;-74
2021/06/12 07:07:08;;;;;;;23.00;15.23;;;19.60;89.30;;;;;;5072203;28;20104;-73
2021/06/12 07:09:34;;;;;;;18.80;14.23;;;19.60;89.30;;;;;;5076311;28;20414;-73
2021/06/12 07:12:01;;;;;;;20.58;15.13;;;19.60;89.70;;;;;;5077551;28;20051;-73
2021/06/12 07:14:28;;;;;;;21.27;15.32;;;19.60;89.10;;;;;;5079932;28;20478;-73
2021/06/12 07:16:54;;;;;;;24.25;16.60;;;19.50;89.00;;;;;;5086895;28;20024;-73
2021/06/12 07:19:20;;;;;;;20.83;15.38;;;19.50;89.20;;;;;;5083012;28;20025;-71
2021/06/12 07:21:47;;;;;;;20.45;15.43;;;19.50;89.40;;;;;;5087405;28;20025;-70
2021/06/12 07:24:13;;;;;;;20.85;15.18;;;19.50;89.60;;;;;;5076660;28;20066;-70
2021/06/12 07:26:42;;;;;;;20.58;14.38;;;19.50;89.80;;;;;;5065179;28;20040;-70
2021/06/12 07:29:07;;;;;;;17.88;10.88;;;19.50;90.30;;;;;;5061292;28;20024;-70
2021/06/12 07:31:33;;;;;;;18.77;11.32;;;19.40;90.40;;;;;;5075194;28;20043;-70
2021/06/12 07:33:59;;;;;;;15.50;9.45;;;19.30;91.50;;;;;;5078336;28;20350;-70
2021/06/12 07:36:27;;;;;;;18.00;11.30;;;19.20;91.80;;;;;;5076652;28;20422;-71
2021/06/12 07:38:52;;;;;;;19.83;12.70;;;19.00;92.10;;;;;;5075293;28;20036;-69
2021/06/12 07:41:18;;;;;;;17.88;12.77;;;18.90;92.30;;;;;;5076980;28;20164;-69
2021/06/12 07:43:44;;;;;;;18.92;13.73;;;18.80;92.50;;;;;;5082496;28;20064;-70
2021/06/12 07:46:09;;;;;;;20.20;12.43;;;18.80;92.70;;;;;;5081268;28;20494;-72
2021/06/12 07:48:35;;;;;;;21.23;13.68;;;18.80;92.80;;;;;;5074566;28;20032;-72
2021/06/12 07:51:01;;;;;;;19.63;11.68;;;18.80;92.70;;;;;;5056949;28;20037;-71
2021/06/12 07:53:27;;;;;;;18.52;12.60;;;18.70;92.70;;;;;;5080812;28;20466;-70
2021/06/12 07:55:52;;;;;;;15.23;10.07;;;18.70;92.80;;;;;;5063468;28;20051;-71
2021/06/12 07:58:18;;;;;;;21.52;11.75;;;18.70;92.70;;;;;;5061470;28;20108;-71
2021/06/12 08:00:44;;;;;;;16.67;11.55;;;18.70;92.60;;;;;;5084855;28;20021;-72
2021/06/12 08:03:10;;;;;;;16.90;11.77;;;18.70;92.60;;;;;;5080870;28;20028;-70
2021/06/12 08:05:35;;;;;;;15.13;11.90;;;18.70;92.60;;;;;;5075976;28;20038;-73
2021/06/12 08:08:01;;;;;;;16.17;11.27;;;18.60;92.70;;;;;;5072464;28;20028;-71
2021/06/12 08:10:27;;;;;;;14.90;10.63;;;18.70;93.00;;;;;;5078362;28;20427;-71
2021/06/12 08:12:52;;;;;;;13.95;10.07;;;18.60;92.80;;;;;;5078766;28;20024;-71
2021/06/12 08:15:19;;;;;;;16.42;11.25;;;18.60;92.90;;;;;;5073625;28;20109;-71
2021/06/12 08:17:44;;;;;;;17.02;10.88;;;18.60;92.70;;;;;;5075441;28;20021;-71
2021/06/12 08:20:10;;;;;;;12.98;9.80;;;18.60;92.60;;;;;;5075014;28;20025;-75
2021/06/12 08:22:36;;;;;;;18.83;10.93;;;18.60;92.60;;;;;;5072004;28;20555;-74
2021/06/12 08:25:04;;;;;;;16.00;10.50;;;18.60;92.60;;;;;;5085054;28;20028;-74
2021/06/12 08:27:30;;;;;;;18.92;11.95;;;18.70;92.10;;;;;;5074290;28;20043;-70
2021/06/12 08:29:56;;;;;;;15.38;11.10;;;18.70;92.00;;;;;;5081188;28;20032;-71
2021/06/12 08:32:21;;;;;;;14.80;11.02;;;18.80;92.30;;;;;;5078890;28;20554;-71
2021/06/12 08:34:47;;;;;;;16.20;11.27;;;18.80;91.80;;;;;;5083861;28;20021;-71
2021/06/12 08:37:13;;;;;;;15.18;10.90;;;18.80;91.90;;;;;;5081948;28;20456;-70
2021/06/12 08:39:39;;;;;;;13.93;11.07;;;18.90;92.10;;;;;;5082389;28;20012;-71
2021/06/12 08:42:05;;;;;;;16.08;11.02;;;18.90;91.90;;;;;;5075844;28;20035;-70
2021/06/12 08:44:33;;;;;;;15.65;10.35;;;19.00;92.00;;;;;;5088531;28;20445;-71
2021/06/12 08:46:59;;;;;;;13.88;8.52;;;19.10;91.30;;;;;;5084270;28;20107;-71
2021/06/12 08:49:25;;;;;;;12.43;6.85;;;19.20;91.00;;;;;;5079703;28;20103;-71
2021/06/12 08:51:50;;;;;;;11.82;7.35;;;19.20;90.40;;;;;;5080544;28;20039;-71
2021/06/12 08:54:18;;;;;;;14.98;5.70;;;19.30;90.20;;;;;;5078937;28;20031;-71
2021/06/12 08:56:46;;;;;;;10.27;5.05;;;19.30;87.40;;;;;;5075986;28;20075;-70
2021/06/12 08:59:12;;;;;;;10.40;5.60;;;19.30;88.30;;;;;;5086542;28;20063;-71
2021/06/12 09:01:39;;;;;;;10.77;5.53;;;19.40;87.50;;;;;;5078475;28;20052;-71
2021/06/12 09:04:05;;;;;;;9.30;5.05;;;19.30;86.40;;;;;;5054776;28;20044;-71
2021/06/12 09:06:31;;;;;;;12.07;5.05;;;19.20;86.10;;;;;;5058804;28;20055;-72
2021/06/12 09:09:00;;;;;;;5.72;4.30;;;19.20;86.10;;;;;;5088295;28;20086;-72
2021/06/12 09:11:31;;;;;;;9.32;3.97;;;19.30;86.90;;;;;;5069194;28;20103;-72
2021/06/12 09:13:58;;;;;;;10.93;4.10;;;19.30;84.50;;;;;;5071471;28;20036;-72
2021/06/12 09:16:26;;;;;;;9.63;4.65;;;19.30;82.30;;;;;;5071637;28;20031;-71
2021/06/12 09:18:54;;;;;;;8.38;4.03;;;19.30;82.80;;;;;;5075115;28;20032;-72
2021/06/12 09:21:34;;;;;;;7.13;3.92;;;19.40;83.50;;;;;;5072945;28;20030;-71
2021/06/12 09:24:02;;;;;;;7.18;3.85;;;19.50;83.40;;;;;;5078543;28;20036;-72
2021/06/12 09:26:53;;;;;;;9.50;3.72;;;19.60;83.30;;;;;;5079876;28;20027;-72
2021/06/12 09:29:20;;;;;;;7.55;4.03;;;19.70;81.60;;;;;;5080752;28;20039;-71
2021/06/12 09:31:55;;;;;;;8.48;3.80;;;19.60;81.90;;;;;;5081937;28;20035;-72
2021/06/12 09:34:23;;;;;;;10.60;3.80;;;19.70;81.90;;;;;;5057569;28;20044;-71
2021/06/12 09:36:51;;;;;;;7.75;3.45;;;19.80;80.60;;;;;;5080449;28;20091;-72
2021/06/12 09:39:17;;;;;;;7.18;3.03;;;19.80;79.10;;;;;;5079607;28;20107;-70
2021/06/12 09:41:51;;;;;;;10.38;3.55;;;19.80;79.80;;;;;;5073872;28;20064;-70
2021/06/12 09:44:49;;;;;;;11.10;4.35;;;19.80;79.90;;;;;;5075473;28;20082;-71
2021/06/12 09:47:23;;;;;;;8.68;3.90;;;19.80;79.60;;;;;;5080676;28;20056;-71
2021/06/12 09:49:50;;;;;;;8.00;3.95;;;19.80;79.10;;;;;;5045342;28;20051;-71
2021/06/12 09:52:19;;;;;;;11.60;3.90;;;19.80;78.90;;;;;;5076613;28;20047;-71
2021/06/12 09:54:45;;;;;;;7.63;3.03;;;19.80;79.40;;;;;;5064756;28;20021;-73
2021/06/12 09:57:14;;;;;;;5.50;2.22;;;20.00;76.50;;;;;;5079250;28;20032;-70
2021/06/12 09:59:46;;;;;;;7.90;3.30;;;20.00;75.10;;;;;;5079997;28;20120;-70
2021/06/12 10:02:14;;;;;;;6.05;2.33;;;20.00;73.30;;;;;;5079561;28;20099;-70
2021/06/12 10:04:56;;;;;;;6.95;2.42;;;20.00;72.80;;;;;;5061018;28;20047;-72
2021/06/12 10:07:23;;;;;;;8.13;2.20;;;20.10;71.50;;;;;;5079135;28;20020;-72
2021/06/12 10:09:50;;;;;;;3.97;1.80;;;20.00;70.80;;;;;;5081337;28;20028;-71
2021/06/12 10:12:18;;;;;;;4.55;1.88;;;20.00;70.10;;;;;;5076039;28;20103;-71
2021/06/12 10:14:45;;;;;;;5.28;2.08;;;19.90;69.00;;;;;;5081814;28;20378;-71
2021/06/12 10:17:13;;;;;;;8.73;2.38;;;19.70;68.90;;;;;;5075990;28;20036;-73
2021/06/12 10:19:41;;;;;;;6.80;1.90;;;19.80;70.30;;;;;;5077753;28;20032;-72
2021/06/12 10:22:08;;;;;;;7.55;1.80;;;19.70;70.00;;;;;;5066815;28;20152;-73
2021/06/12 10:24:34;;;;;;;6.55;2.13;;;19.60;68.40;;;;;;5100791;28;20028;-73
2021/06/12 10:27:00;;;;;;;6.20;1.95;;;19.50;68.20;;;;;;5079858;28;20073;-73
2021/06/12 10:29:27;;;;;;;5.63;1.45;;;19.50;68.60;;;;;;5098501;28;20078;-73
2021/06/12 10:31:55;;;;;;;6.32;1.75;;;19.60;69.00;;;;;;5100442;28;20038;-73
2021/06/12 10:34:27;;;;;;;6.82;1.63;;;19.50;67.20;;;;;;5098378;28;20085;-73
2021/06/12 10:37:03;;;;;;;6.40;1.70;;;19.40;67.10;;;;;;5064173;28;20036;-73
2021/06/12 10:39:34;;;;;;;5.15;1.70;;;19.50;68.20;;;;;;5094427;28;20028;-73
2021/06/12 10:42:20;;;;;;;;;;;19.50;67.60;;;;;;5074535;28;20020;-73
2021/06/12 10:44:49;;;;;;;4.80;1.60;;;19.50;67.40;;;;;;5093886;28;20373;-73
2021/06/12 10:47:36;;;;;;;6.93;1.58;;;19.50;65.70;;;;;;5101133;28;20027;-73
2021/06/12 10:50:29;;;;;;;3.65;1.58;;;19.60;67.60;;;;;;5103157;28;20028;-74
2021/06/12 10:53:21;;;;;;;4.80;1.98;;;19.70;67.40;;;;;;5101410;28;20050;-73
2021/06/12 10:55:52;;;;;;;3.90;1.50;;;19.90;67.70;;;;;;5082704;28;20508;-73
2021/06/12 10:58:29;;;;;;;5.40;1.50;;;20.00;67.30;;;;;;5100957;28;20129;-72
2021/06/12 11:01:15;;;;;;;6.50;1.85;;;20.00;67.10;;;;;;5075821;28;20020;-74
2021/06/12 11:06:50;;;;;;;6.53;2.35;;;19.90;67.50;;;;;;5098674;28;20035;-73
2021/06/12 11:09:20;;;;;;;5.75;1.88;;;20.00;67.70;;;;;;5101157;28;20509;-72
2021/06/12 11:11:50;;;;;;;3.15;1.60;;;20.10;67.10;;;;;;5099019;28;20561;-73
2021/06/12 11:14:22;;;;;;;5.22;2.00;;;20.10;68.00;;;;;;5099700;28;20077;-73
2021/06/12 11:17:09;;;;;;;8.07;2.20;;;20.20;68.20;;;;;;5092904;28;20121;-73
2021/06/12 11:19:44;;;;;;;5.95;1.80;;;20.20;67.80;;;;;;5097617;28;20020;-73
2021/06/12 11:22:25;;;;;;;5.07;1.58;;;20.40;68.40;;;;;;5100610;28;20027;-73
2021/06/12 11:25:10;;;;;;;4.25;1.75;;;20.40;68.40;;;;;;5094456;28;20108;-72
2021/06/12 11:27:50;;;;;;;3.53;1.80;;;20.50;67.50;;;;;;5098673;28;20027;-73
2021/06/12 11:30:22;;;;;;;5.20;1.97;;;20.50;67.30;;;;;;5095878;28;20028;-73
2021/06/12 11:32:57;;;;;;;6.68;1.48;;;20.60;67.40;;;;;;5096324;28;20028;-73
2021/06/12 11:35:53;;;;;;;8.57;2.10;;;20.60;65.10;;;;;;5099500;28;20504;-73
2021/06/12 11:38:30;;;;;;;5.53;1.75;;;20.50;64.40;;;;;;5098738;28;20416;-73
2021/06/12 11:41:07;;;;;;;10.45;2.47;;;20.30;65.70;;;;;;5099660;28;20165;-74
2021/06/12 11:43:40;;;;;;;5.85;2.53;;;20.10;66.60;;;;;;5098725;28;20066;-74
2021/06/12 11:46:08;;;;;;;4.00;2.00;;;20.30;67.90;;;;;;5080457;28;20075;-74
2021/06/12 11:48:46;;;;;;;6.28;2.13;;;21.00;67.40;;;;;;5098470;28;20032;-72
2021/06/12 11:51:31;;;;;;;4.32;1.92;;;21.80;64.10;;;;;;5098989;28;20439;-72
2021/06/12 11:54:00;;;;;;;8.35;2.25;;;22.20;61.50;;;;;;5098420;28;20524;-72
2021/06/12 11:56:58;;;;;;;6.50;2.05;;;22.70;61.00;;;;;;5095588;28;20035;-74
2021/06/12 11:59:31;;;;;;;6.53;2.10;;;23.50;57.20;;;;;;5079330;28;20440;-74
2021/06/12 12:02:08;;;;;;;11.73;2.28;;;23.70;55.40;;;;;;5092693;28;20039;-74
2021/06/12 12:04:39;;;;;;;7.65;1.60;;;24.10;55.80;;;;;;5089678;28;20093;-72
2021/06/12 12:07:05;;;;;;;;;;;24.00;54.30;;;;;;5090588;28;20114;-73
2021/06/12 12:09:41;;;;;;;4.85;1.60;;;24.00;54.30;;;;;;5089317;28;20419;-73
2021/06/12 12:12:09;;;;;;;3.60;1.60;;;24.20;55.30;;;;;;5087565;28;20997;-73
2021/06/12 12:14:37;;;;;;;4.63;1.70;;;24.40;55.00;;;;;;5070716;28;20040;-69
2021/06/12 12:17:05;;;;;;;3.58;1.35;;;24.50;53.70;;;;;;5085051;28;20134;-71
2021/06/12 12:19:31;;;;;;;6.95;1.55;;;24.80;53.90;;;;;;5088335;28;20028;-71
2021/06/12 12:21:59;;;;;;;5.10;1.63;;;24.90;52.70;;;;;;5087483;28;20036;-71
2021/06/12 12:24:31;;;;;;;10.93;1.88;;;24.90;53.50;;;;;;5088679;28;20489;-74
2021/06/12 12:27:09;;;;;;;5.82;2.22;;;24.60;52.60;;;;;;5090590;28;20414;-72
2021/06/12 12:29:39;;;;;;;4.35;1.60;;;23.90;51.60;;;;;;5093353;28;20028;-70
2021/06/12 12:32:05;;;;;;;6.55;2.38;;;23.30;53.20;;;;;;5098279;28;20102;-72
2021/06/12 12:34:39;;;;;;;8.88;1.85;;;23.10;56.60;;;;;;5097574;28;20032;-71
2021/06/12 12:37:07;;;;;;;7.18;1.70;;;23.10;56.10;;;;;;5096671;28;20043;-72
2021/06/12 12:39:41;;;;;;;4.80;1.35;;;23.70;55.10;;;;;;5094306;28;20032;-75
2021/06/12 12:42:14;;;;;;;10.73;1.65;;;24.00;51.40;;;;;;5101385;28;20032;-75
2021/06/12 12:44:43;;;;;;;3.53;1.17;;;24.20;49.60;;;;;;5095080;28;20525;-74
2021/06/12 12:47:10;;;;;;;4.20;1.48;;;24.40;50.20;;;;;;5098151;28;20677;-71
2021/06/12 12:49:40;;;;;;;2.50;1.23;;;24.50;49.70;;;;;;5082325;28;20111;-70